Time;durP1;ratioP1;P1;durP2;ratioP2;P2;SDS_P1;SDS_P2;PMS_P1;PMS_P2;Temp;Humidity;BMP_temperature;BMP_pressure;BME280_temperature;BME280_humidity;BME280_pressure;Samples;Min_cycle;Max_cycle;Signal;HPM_P1;HPM_P2
2023/07/21 00:00:24;;;;;;;12.63;4.40;;;;;;;14.50;71.53;98186.72;4967642;28;20042;-67
2023/07/21 00:02:52;;;;;;;6.22;4.05;;;;;;;14.51;71.44;98191.91;4989293;28;20062;-66
2023/07/21 00:05:17;;;;;;;6.85;4.15;;;;;;;14.51;71.81;98196.44;4947654;28;20046;-69
2023/07/21 00:07:44;;;;;;;10.25;4.28;;;;;;;14.55;71.15;98196.97;4951625;28;20035;-68
2023/07/21 00:10:10;;;;;;;7.70;4.57;;;;;;;14.57;71.39;98197.59;4952083;28;20054;-68
2023/07/21 00:12:42;;;;;;;6.97;3.75;;;;;;;14.59;71.72;98184.84;4955079;28;20062;-68
2023/07/21 00:15:08;;;;;;;5.07;3.47;;;;;;;14.61;71.17;98189.06;4951677;28;20050;-69
2023/07/21 00:17:34;;;;;;;6.90;3.67;;;;;;;14.61;70.86;98183.69;4943077;28;20054;-68
2023/07/21 00:20:07;;;;;;;8.60;4.20;;;;;;;14.63;70.86;98183.53;4953649;28;20036;-69
2023/07/21 00:22:32;;;;;;;6.97;4.22;;;;;;;14.64;70.80;98183.34;4955244;28;20542;-67
2023/07/21 00:25:00;;;;;;;6.80;3.85;;;;;;;14.65;70.54;98202.97;4954914;28;20041;-67
2023/07/21 00:27:25;;;;;;;9.80;4.80;;;;;;;14.66;70.75;98172.47;4969614;28;20046;-67
2023/07/21 00:29:51;;;;;;;4.53;3.70;;;;;;;14.65;70.97;98177.00;4955125;28;20497;-67
2023/07/21 00:32:18;;;;;;;5.18;4.07;;;;;;;14.65;71.26;98181.50;4970721;28;20053;-70
2023/07/21 00:34:43;;;;;;;5.47;3.60;;;;;;;14.65;70.96;98186.88;4970169;28;20413;-71
2023/07/21 00:37:08;;;;;;;5.68;3.25;;;;;;;14.67;71.41;98180.31;4970523;28;20046;-70
2023/07/21 00:39:33;;;;;;;6.25;4.03;;;;;;;14.67;70.96;98191.03;4960898;28;20058;-69
2023/07/21 00:41:59;;;;;;;7.35;4.53;;;;;;;14.68;71.11;98208.81;4954095;28;20045;-68
2023/07/21 00:44:24;;;;;;;5.15;4.05;;;;;;;14.71;71.45;98189.69;4951203;28;20049;-66
2023/07/21 00:46:49;;;;;;;11.45;3.65;;;;;;;14.74;71.17;98191.22;4951300;28;20050;-67
2023/07/21 00:49:14;;;;;;;6.13;3.90;;;;;;;14.73;70.85;98190.38;4947400;28;20873;-67
2023/07/21 00:51:40;;;;;;;9.27;4.53;;;;;;;14.73;70.85;98195.75;4939154;28;20559;-67
2023/07/21 00:54:05;;;;;;;8.65;3.63;;;;;;;14.72;70.19;98204.78;4974614;28;20042;-66
2023/07/21 00:56:31;;;;;;;10.02;3.95;;;;;;;14.74;69.59;98197.41;4974606;28;20049;-66
2023/07/21 00:58:57;;;;;;;7.43;4.10;;;;;;;14.75;69.92;98201.78;4959152;28;20058;-66
2023/07/21 01:01:23;;;;;;;5.63;3.78;;;;;;;14.75;69.37;98164.22;4958047;28;20046;-66
2023/07/21 01:03:48;;;;;;;7.22;4.93;;;;;;;14.76;69.30;98195.41;4959312;28;20046;-66
2023/07/21 01:06:13;;;;;;;5.25;4.00;;;;;;;14.78;69.28;98209.50;4957443;28;20054;-69
2023/07/21 01:08:39;;;;;;;6.85;3.88;;;;;;;14.74;68.82;98200.09;4955927;28;20046;-68
2023/07/21 01:11:06;;;;;;;6.95;3.72;;;;;;;14.71;69.10;98234.47;4957221;28;20034;-68
2023/07/21 01:13:34;;;;;;;7.03;3.70;;;;;;;14.68;69.58;98214.19;4958915;28;20408;-68
2023/07/21 01:16:01;;;;;;;7.03;4.25;;;;;;;14.65;69.93;98213.69;4955540;28;20050;-68
2023/07/21 01:18:27;;;;;;;11.63;4.07;;;;;;;14.61;69.91;98209.66;4942364;28;20363;-67
2023/07/21 01:20:53;;;;;;;5.63;4.13;;;;;;;14.61;70.23;98212.34;4943462;28;20038;-67
2023/07/21 01:23:30;;;;;;;7.30;4.35;;;;;;;14.61;70.05;98218.56;4956577;28;20046;-67
2023/07/21 01:25:57;;;;;;;8.52;3.92;;;;;;;14.59;69.61;98215.19;4959095;28;20053;-67
2023/07/21 01:28:24;;;;;;;8.73;5.18;;;;;;;14.52;69.84;98211.53;4940437;28;20050;-68
2023/07/21 01:30:53;;;;;;;11.38;3.90;;;;;;;14.49;69.89;98215.38;4930214;28;20047;-68
2023/07/21 01:33:20;;;;;;;5.82;4.15;;;;;;;14.48;70.44;98218.22;4955822;28;20058;-68
2023/07/21 01:35:51;;;;;;;7.95;4.80;;;;;;;14.45;70.50;98245.38;4959080;28;20093;-68
2023/07/21 01:38:22;;;;;;;6.43;4.32;;;;;;;14.46;70.41;98230.97;4934121;28;20058;-65
2023/07/21 01:40:48;;;;;;;6.35;3.95;;;;;;;14.42;70.50;98230.47;4946088;28;20041;-65
2023/07/21 01:43:14;;;;;;;9.32;4.38;;;;;;;14.43;71.13;98231.31;4941091;28;20049;-66
2023/07/21 01:45:41;;;;;;;5.88;4.25;;;;;;;14.43;71.14;98236.69;4940812;28;20042;-65
2023/07/21 01:48:07;;;;;;;6.65;4.90;;;;;;;14.43;71.02;98226.81;4956671;28;20521;-72
2023/07/21 01:50:34;;;;;;;9.40;4.60;;;;;;;14.43;71.21;98242.88;4958726;28;20053;-72
2023/07/21 01:53:06;;;;;;;6.30;3.70;;;;;;;14.45;71.32;98325.81;4956365;28;20054;-72
2023/07/21 01:55:43;;;;;;;5.70;4.03;;;;;;;14.52;71.30;98230.31;4958843;28;20523;-70
2023/07/21 01:58:09;;;;;;;7.55;4.50;;;;;;;14.48;71.33;98223.59;4955490;28;20061;-75
2023/07/21 02:00:38;;;;;;;6.90;4.30;;;;;;;14.48;70.74;98234.31;4960281;28;20042;-75
2023/07/21 02:03:04;;;;;;;7.90;5.15;;;;;;;14.49;71.50;98228.78;4958160;28;20054;-75
2023/07/21 02:05:30;;;;;;;11.60;4.60;;;;;;;14.50;71.80;98227.78;4958294;28;20046;-67
2023/07/21 02:07:56;;;;;;;10.45;4.10;;;;;;;14.52;71.08;98224.94;4957240;28;20046;-72
2023/07/21 02:10:21;;;;;;;10.25;4.50;;;;;;;14.54;71.22;98233.66;4944079;28;20057;-68
2023/07/21 02:12:54;;;;;;;6.80;4.70;;;;;;;14.58;71.30;98228.78;4959745;28;20801;-68
2023/07/21 02:15:20;;;;;;;6.93;4.20;;;;;;;14.59;70.93;98236.66;4942141;28;20050;-69
2023/07/21 02:17:45;;;;;;;7.72;4.60;;;;;;;14.59;71.12;98252.75;4939827;28;20398;-69
2023/07/21 02:20:11;;;;;;;6.47;3.78;;;;;;;14.61;71.11;98234.66;4942450;28;20047;-68
2023/07/21 02:22:37;;;;;;;8.10;4.80;;;;;;;14.61;71.40;98234.66;4957059;28;20054;-69
2023/07/21 02:25:04;;;;;;;4.97;3.90;;;;;;;14.64;71.06;98241.53;4941155;28;20046;-68
2023/07/21 02:27:32;;;;;;;8.32;4.55;;;;;;;14.63;71.50;98219.22;4943470;28;20046;-68
2023/07/21 02:29:57;;;;;;;6.22;4.20;;;;;;;14.66;71.08;98251.09;4956326;28;20043;-68
2023/07/21 02:32:23;;;;;;;8.50;4.28;;;;;;;14.68;71.20;98232.94;4955817;28;20057;-69
2023/07/21 02:34:51;;;;;;;12.40;4.38;;;;;;;14.71;70.96;98223.75;4954644;28;20416;-75
2023/07/21 02:37:17;;;;;;;7.40;3.85;;;;;;;14.73;70.71;98230.63;4943602;28;20053;-75
2023/07/21 02:39:42;;;;;;;9.82;4.43;;;;;;;14.77;71.44;98233.81;4957000;28;20042;-76
2023/07/21 02:42:07;;;;;;;10.43;4.50;;;;;;;14.80;70.88;98223.53;4954263;28;20042;-76
2023/07/21 02:44:33;;;;;;;7.88;4.50;;;;;;;14.84;71.01;98224.88;4957152;28;20047;-74
2023/07/21 02:46:58;;;;;;;8.35;4.45;;;;;;;14.87;70.99;98192.34;4954886;28;20058;-72
2023/07/21 02:49:24;;;;;;;9.20;4.50;;;;;;;14.89;70.59;98241.31;4937232;28;20042;-73
2023/07/21 02:51:49;;;;;;;8.80;4.53;;;;;;;14.92;71.00;98225.88;4954251;28;20146;-74
2023/07/21 02:54:16;;;;;;;5.78;4.78;;;;;;;14.94;70.70;98218.50;4937231;28;20053;-73
2023/07/21 02:56:41;;;;;;;7.97;4.85;;;;;;;14.94;70.33;98223.84;4953127;28;20069;-75
2023/07/21 02:59:20;;;;;;;6.53;4.45;;;;;;;14.89;70.55;98219.88;4952486;28;20054;-73
2023/07/21 03:01:54;;;;;;;9.82;5.22;;;;;;;14.85;70.71;98215.84;4936902;28;20042;-73
2023/07/21 03:04:25;;;;;;;8.50;4.90;;;;;;;14.85;70.26;98215.84;4950777;28;20042;-73
2023/07/21 03:06:58;;;;;;;7.10;4.70;;;;;;;14.83;70.29;98219.69;4941119;28;20054;-71
2023/07/21 03:09:23;;;;;;;7.30;4.90;;;;;;;14.82;70.88;98210.81;4956227;28;20038;-72
2023/07/21 03:11:49;;;;;;;10.18;5.03;;;;;;;14.85;71.18;98215.00;4972821;28;20046;-72
2023/07/21 03:14:49;;;;;;;8.77;4.82;;;;;;;14.88;71.07;98220.88;4905880;28;20051;-74
2023/07/21 03:17:18;;;;;;;10.88;5.22;;;;;;;14.90;71.05;98216.13;4885041;29;20820;-76
2023/07/21 03:19:44;;;;;;;7.72;5.10;;;;;;;14.95;70.27;98215.63;4916959;29;20043;-74
2023/07/21 03:22:15;;;;;;;10.38;5.10;;;;;;;14.99;70.45;98221.50;4900610;29;20823;-73
2023/07/21 03:24:41;;;;;;;8.75;4.78;;;;;;;15.03;70.53;98228.19;4901468;29;20046;-72
2023/07/21 03:27:08;;;;;;;11.98;5.53;;;;;;;15.09;69.94;98217.63;4900382;29;20050;-72
2023/07/21 03:29:37;;;;;;;6.95;4.35;;;;;;;15.12;69.68;98216.44;4897037;29;20064;-72
2023/07/21 03:32:07;;;;;;;10.20;5.18;;;;;;;15.12;69.67;98211.88;4891010;29;20050;-71
2023/07/21 03:34:35;;;;;;;8.32;4.68;;;;;;;15.13;69.74;98213.56;4900024;29;20054;-72
2023/07/21 03:37:04;;;;;;;9.88;4.90;;;;;;;15.15;69.73;98232.19;4900296;29;20059;-73
2023/07/21 03:39:36;;;;;;;7.82;4.63;;;;;;;15.20;69.68;98219.09;4916469;29;20391;-73
2023/07/21 03:42:02;;;;;;;6.32;4.50;;;;;;;15.23;69.80;98221.44;4900146;29;20439;-73
2023/07/21 03:44:27;;;;;;;6.57;4.45;;;;;;;15.31;69.30;98221.41;4897140;29;20044;-73
2023/07/21 03:46:52;;;;;;;5.85;4.15;;;;;;;15.40;69.62;98220.34;4912805;28;20046;-73
2023/07/21 03:49:18;;;;;;;6.63;4.10;;;;;;;15.44;69.10;98227.03;4943208;28;20058;-72
2023/07/21 03:51:50;;;;;;;9.80;4.60;;;;;;;15.46;69.09;98229.56;4971499;28;20497;-72
2023/07/21 03:54:15;;;;;;;5.60;4.00;;;;;;;15.47;68.98;98233.91;4956644;28;20046;-72
2023/07/21 03:56:40;;;;;;;6.35;4.40;;;;;;;15.46;68.78;98245.69;4939310;28;20413;-73
2023/07/21 03:59:06;;;;;;;7.35;4.68;;;;;;;15.46;68.44;98230.38;4971421;28;20054;-72
2023/07/21 04:01:31;;;;;;;6.95;4.38;;;;;;;15.47;69.02;98231.22;4954735;28;20046;-72
2023/07/21 04:03:56;;;;;;;7.55;4.70;;;;;;;15.49;68.60;98229.19;4956284;28;20038;-72
2023/07/21 04:06:24;;;;;;;8.85;5.15;;;;;;;15.49;68.81;98231.88;4971559;28;20050;-72
2023/07/21 04:08:51;;;;;;;6.78;4.28;;;;;;;15.53;68.57;98239.44;4955124;28;20042;-72
2023/07/21 04:11:17;;;;;;;9.95;4.65;;;;;;;15.63;69.13;98235.72;4971527;28;20053;-73
2023/07/21 04:13:42;;;;;;;7.32;4.05;;;;;;;15.68;68.61;98244.09;4971498;28;20043;-72
2023/07/21 04:16:08;;;;;;;5.45;4.00;;;;;;;15.70;68.57;98245.56;4956196;28;20043;-72
2023/07/21 04:18:33;;;;;;;7.93;4.30;;;;;;;15.71;68.29;98241.03;4955174;28;20080;-72
2023/07/21 04:20:59;;;;;;;11.32;5.18;;;;;;;15.72;68.38;98248.91;4971818;28;20097;-72
2023/07/21 04:23:24;;;;;;;7.97;4.20;;;;;;;15.72;68.67;98251.59;4971412;28;20041;-72
2023/07/21 04:25:52;;;;;;;8.43;4.75;;;;;;;15.72;68.82;98266.88;4955028;28;20061;-72
2023/07/21 04:28:19;;;;;;;8.52;4.70;;;;;;;15.76;69.09;98246.72;4977827;28;20050;-72
2023/07/21 04:30:44;;;;;;;5.97;4.30;;;;;;;15.76;69.07;98241.34;4977694;28;20053;-73
2023/07/21 04:33:11;;;;;;;7.18;4.35;;;;;;;15.76;69.66;98246.72;4978848;28;20046;-72
2023/07/21 04:35:36;;;;;;;7.65;4.57;;;;;;;15.81;69.09;98255.06;4977949;28;20049;-72
2023/07/21 04:38:06;;;;;;;6.38;4.40;;;;;;;15.84;69.15;98250.19;4960691;28;20539;-72
2023/07/21 04:40:38;;;;;;;9.82;4.57;;;;;;;15.91;69.54;98255.72;4977732;28;20046;-72
2023/07/21 04:43:03;;;;;;;6.60;4.57;;;;;;;16.01;69.58;98255.50;4961347;28;20041;-73
2023/07/21 04:45:28;;;;;;;7.70;5.03;;;;;;;16.06;69.07;98253.94;4977715;28;20057;-73
2023/07/21 04:48:16;;;;;;;7.18;4.50;;;;;;;16.17;68.96;98250.00;4950517;28;20061;-73
2023/07/21 04:50:43;;;;;;;8.13;4.40;;;;;;;16.29;68.84;98246.72;4945092;28;20397;-73
2023/07/21 04:53:09;;;;;;;8.77;4.93;;;;;;;16.47;68.60;98248.25;4962082;28;20046;-73
2023/07/21 04:55:35;;;;;;;5.43;4.20;;;;;;;16.71;68.04;98248.06;4928774;28;20076;-72
2023/07/21 04:58:02;;;;;;;7.93;4.38;;;;;;;17.07;67.59;98248.22;4944849;28;20054;-72
2023/07/21 05:00:28;;;;;;;6.68;4.03;;;;;;;17.50;66.56;98243.84;4977120;28;20058;-72
2023/07/21 05:02:53;;;;;;;11.07;4.47;;;;;;;18.13;65.67;98245.88;4960348;28;20057;-74
2023/07/21 05:05:18;;;;;;;7.00;4.28;;;;;;;18.64;64.24;98248.44;4960311;28;20524;-74
2023/07/21 05:07:49;;;;;;;6.13;4.35;;;;;;;19.18;62.61;98255.94;4945785;28;20053;-74
2023/07/21 05:10:15;;;;;;;7.88;4.60;;;;;;;19.76;60.89;98240.22;4977684;28;20065;-73
2023/07/21 05:12:40;;;;;;;10.00;4.70;;;;;;;20.35;58.62;98229.59;4977495;28;20046;-73
2023/07/21 05:15:28;;;;;;;7.15;4.50;;;;;;;20.67;56.67;98246.91;4961951;28;20054;-73
2023/07/21 05:18:02;;;;;;;6.65;4.13;;;;;;;20.62;56.52;98238.59;4987892;28;20054;-73
2023/07/21 05:21:01;;;;;;;7.22;4.57;;;;;;;20.50;56.73;98230.25;4954223;28;20513;-73
2023/07/21 05:23:38;;;;;;;6.78;4.43;;;;;;;20.50;56.87;98229.44;4962536;28;20045;-73
2023/07/21 05:26:12;;;;;;;9.67;4.63;;;;;;;20.94;56.47;98221.50;4962192;28;20061;-73
2023/07/21 05:28:38;;;;;;;7.63;3.95;;;;;;;21.48;55.13;98216.81;4977886;28;20057;-73
2023/07/21 05:31:04;;;;;;;5.00;3.67;;;;;;;22.00;53.99;98232.09;4928998;28;20054;-74
2023/07/21 05:33:41;;;;;;;17.35;4.10;;;;;;;22.48;52.83;98256.84;4960612;28;20050;-73
2023/07/21 05:36:10;;;;;;;6.60;4.13;;;;;;;23.03;50.60;98227.16;4961676;28;20069;-71
2023/07/21 05:38:37;;;;;;;7.68;3.95;;;;;;;23.71;49.86;98224.38;4974101;28;20421;-72
2023/07/21 05:41:06;;;;;;;5.85;4.15;;;;;;;24.29;47.76;98230.09;4957872;28;20409;-72
2023/07/21 05:43:34;;;;;;;10.30;4.45;;;;;;;24.49;46.96;98216.22;4973656;28;20065;-71
2023/07/21 05:46:02;;;;;;;8.27;3.85;;;;;;;24.33;46.14;98178.72;4973760;28;20042;-71
2023/07/21 05:48:27;;;;;;;7.60;3.67;;;;;;;24.31;46.59;98202.66;4956847;28;20054;-71
2023/07/21 05:50:57;;;;;;;7.57;3.55;;;;;;;24.48;45.42;98209.09;4957000;28;20050;-71
2023/07/21 05:53:23;;;;;;;4.05;3.05;;;;;;;24.30;45.12;98218.16;4957560;28;20042;-72
2023/07/21 05:55:50;;;;;;;3.13;2.75;;;;;;;24.12;45.53;98223.63;4958757;28;20428;-71
2023/07/21 05:58:28;;;;;;;7.43;3.10;;;;;;;24.90;44.68;98240.69;4956326;28;20050;-71
2023/07/21 06:00:54;;;;;;;6.35;3.20;;;;;;;25.12;43.74;98175.50;4956616;28;20046;-72
2023/07/21 06:03:19;;;;;;;4.75;3.47;;;;;;;25.13;43.70;98217.25;4973325;28;20042;-71
2023/07/21 06:05:45;;;;;;;6.30;3.03;;;;;;;25.05;43.01;98210.25;4973090;28;20050;-71
2023/07/21 06:08:40;;;;;;;5.13;3.58;;;;;;;25.04;42.49;98208.59;4945358;28;20057;-71
2023/07/21 06:12:22;;;;;;;6.18;3.85;;;;;;;25.18;41.91;98225.53;4957969;28;20485;-71
2023/07/21 06:15:08;;;;;;;5.53;3.20;;;;;;;24.72;43.59;98221.69;4958222;28;20049;-72
2023/07/21 06:17:52;;;;;;;;;;;;;;;25.29;44.37;98224.69;4973681;28;20050;-72
2023/07/21 06:20:20;;;;;;;8.70;3.42;;;;;;;24.47;43.25;98235.50;4972926;28;19917;-72
2023/07/21 06:22:47;;;;;;;4.82;3.00;;;;;;;23.83;44.52;98223.38;4957748;28;20049;-71
2023/07/21 06:25:12;;;;;;;9.40;3.85;;;;;;;24.32;45.20;98204.31;4973083;28;20049;-72
2023/07/21 06:27:37;;;;;;;6.53;4.38;;;;;;;25.70;43.57;98206.53;4956423;28;20339;-72
2023/07/21 06:30:03;;;;;;;5.30;3.40;;;;;;;27.30;39.93;98204.22;4955647;28;20055;-70
2023/07/21 06:32:37;;;;;;;8.82;4.20;;;;;;;28.46;37.46;98203.97;4956272;28;20050;-73
2023/07/21 06:35:25;;;;;;;4.65;3.42;;;;;;;28.32;37.33;98200.88;4956876;28;20049;-73
2023/07/21 06:38:14;;;;;;;5.40;3.33;;;;;;;28.46;36.65;98195.75;4947997;28;20054;-72
2023/07/21 06:40:55;;;;;;;7.47;3.38;;;;;;;27.83;36.93;98200.81;4953159;28;20046;-72
2023/07/21 06:43:28;;;;;;;5.90;3.40;;;;;;;28.69;36.94;98197.34;4953812;28;20386;-72
2023/07/21 06:46:11;;;;;;;10.10;3.83;;;;;;;29.87;35.08;98135.50;4937069;28;20046;-72
2023/07/21 06:48:53;;;;;;;7.13;3.97;;;;;;;30.84;33.84;98135.59;4952769;28;20050;-72
2023/07/21 06:51:26;;;;;;;3.92;3.40;;;;;;;31.65;31.79;98135.44;4952355;28;20050;-72
2023/07/21 06:53:52;;;;;;;5.15;3.95;;;;;;;32.91;30.48;98146.75;4953025;28;20043;-73
2023/07/21 06:56:17;;;;;;;6.38;3.92;;;;;;;33.81;28.73;98144.13;4936716;28;20054;-72
2023/07/21 06:58:43;;;;;;;7.82;3.50;;;;;;;34.45;27.64;98153.72;4920442;28;20053;-72
2023/07/21 07:01:09;;;;;;;7.45;3.70;;;;;;;35.17;26.75;98155.00;4936558;28;20074;-73
2023/07/21 07:03:35;;;;;;;5.18;3.80;;;;;;;35.62;26.34;98149.72;4937791;28;20039;-73
2023/07/21 07:06:00;;;;;;;7.75;4.20;;;;;;;36.18;25.60;98140.22;4954863;28;20061;-72
2023/07/21 07:08:25;;;;;;;6.80;4.15;;;;;;;36.69;25.21;98148.19;4957179;28;20049;-72
2023/07/21 07:10:51;;;;;;;6.10;3.85;;;;;;;37.51;23.87;98149.63;4956992;28;20061;-73
2023/07/21 07:13:16;;;;;;;8.43;3.80;;;;;;;37.89;22.58;98144.38;4955827;28;20402;-72
2023/07/21 07:15:41;;;;;;;4.80;3.83;;;;;;;38.43;22.56;98143.00;4955662;28;20065;-66
2023/07/21 07:18:10;;;;;;;7.13;4.03;;;;;;;39.34;21.51;98142.69;4923593;28;20506;-66
2023/07/21 07:20:35;;;;;;;12.27;3.95;;;;;;;40.39;20.20;98146.59;4956872;28;20450;-67
2023/07/21 07:23:01;;;;;;;4.75;4.15;;;;;;;40.90;19.16;98145.28;4972132;28;20038;-68
2023/07/21 07:25:27;;;;;;;4.57;3.95;;;;;;;41.56;18.77;98156.41;4957089;28;20046;-67
2023/07/21 07:27:53;;;;;;;5.45;4.43;;;;;;;41.30;18.86;98153.94;4956864;28;20046;-66
2023/07/21 07:30:20;;;;;;;5.80;4.47;;;;;;;41.48;18.57;98148.94;4956789;28;20054;-67
2023/07/21 07:32:45;;;;;;;5.38;4.38;;;;;;;41.47;18.60;98141.69;4956624;28;20046;-67
2023/07/21 07:35:10;;;;;;;10.43;4.75;;;;;;;41.65;18.75;98141.16;4971601;28;20413;-67
2023/07/21 07:37:36;;;;;;;6.85;4.65;;;;;;;41.96;18.24;98148.16;4956548;28;20409;-66
2023/07/21 07:40:01;;;;;;;5.32;4.82;;;;;;;42.29;17.97;98145.19;4956402;28;20172;-67
2023/07/21 07:42:28;;;;;;;6.78;4.55;;;;;;;41.90;18.00;98139.16;4956435;28;20092;-66
2023/07/21 07:44:55;;;;;;;6.72;4.68;;;;;;;40.85;18.77;98151.13;4956332;28;20061;-67
2023/07/21 07:47:20;;;;;;;8.32;5.05;;;;;;;40.48;19.34;98138.94;4956259;28;20444;-67
2023/07/21 07:49:46;;;;;;;5.22;4.75;;;;;;;41.11;19.15;98146.03;4953997;28;20057;-68
2023/07/21 07:52:11;;;;;;;5.60;4.82;;;;;;;42.39;17.96;98139.94;4956105;28;20529;-67
2023/07/21 07:54:36;;;;;;;5.97;4.90;;;;;;;43.14;17.01;98146.84;4956271;28;20046;-68
2023/07/21 07:57:02;;;;;;;5.70;5.20;;;;;;;42.44;17.07;98147.28;4955601;28;20493;-67
2023/07/21 07:59:27;;;;;;;5.60;4.78;;;;;;;40.94;17.67;98146.25;4956200;28;20046;-66
2023/07/21 08:01:53;;;;;;;5.28;4.90;;;;;;;40.58;18.37;98142.13;4970383;28;20041;-67
2023/07/21 08:04:18;;;;;;;6.25;5.10;;;;;;;40.31;18.45;98147.44;4956079;28;20053;-66
2023/07/21 08:06:43;;;;;;;5.28;4.60;;;;;;;39.91;18.17;98145.91;4956225;28;20038;-67
2023/07/21 08:09:10;;;;;;;7.45;5.07;;;;;;;39.59;18.91;98148.53;4954296;28;20532;-67
2023/07/21 08:11:35;;;;;;;5.55;4.20;;;;;;;40.11;18.07;98146.25;4955827;28;20046;-67
2023/07/21 08:14:00;;;;;;;5.18;4.50;;;;;;;40.76;17.97;98144.78;4955621;28;20054;-67
2023/07/21 08:16:27;;;;;;;5.72;4.90;;;;;;;40.98;17.36;98138.78;4956028;28;20038;-67
2023/07/21 08:18:52;;;;;;;5.20;4.72;;;;;;;41.13;17.11;98148.53;4955848;28;20054;-67
2023/07/21 08:21:26;;;;;;;4.95;4.65;;;;;;;42.37;15.59;98147.88;4954741;28;20038;-68
2023/07/21 08:23:52;;;;;;;5.55;5.10;;;;;;;43.82;15.28;98153.03;4970815;28;20042;-67
2023/07/21 08:26:20;;;;;;;6.13;5.65;;;;;;;44.92;14.58;98154.72;4955911;28;20050;-67
2023/07/21 08:28:45;;;;;;;7.05;6.53;;;;;;;45.72;13.91;98148.94;4953918;28;20050;-66
2023/07/21 08:31:11;;;;;;;7.53;6.45;;;;;;;46.02;14.17;98153.88;4955542;28;20053;-69
2023/07/21 08:33:37;;;;;;;6.82;6.20;;;;;;;46.25;13.60;98158.25;4955725;28;20050;-68
2023/07/21 08:36:03;;;;;;;8.27;7.60;;;;;;;46.64;12.92;98160.81;4955436;28;20046;-67
2023/07/21 08:38:28;;;;;;;9.00;8.38;;;;;;;46.96;12.75;98167.66;4956279;28;20050;-72
2023/07/21 08:41:05;;;;;;;9.00;8.40;;;;;;;47.52;12.79;98158.16;4912172;29;20050;-72
2023/07/21 08:43:31;;;;;;;8.93;8.32;;;;;;;47.12;12.92;98161.81;4924166;29;20276;-74
2023/07/21 08:46:01;;;;;;;10.38;9.68;;;;;;;47.53;12.71;98161.81;4919152;29;20070;-73
2023/07/21 08:48:27;;;;;;;9.30;8.70;;;;;;;47.93;12.94;98194.88;4919605;29;20043;-74
2023/07/21 08:50:57;;;;;;;11.38;10.63;;;;;;;48.54;12.57;98199.75;4918322;29;20102;-73
2023/07/21 08:53:24;;;;;;;12.43;11.50;;;;;;;48.93;11.81;98196.31;4917960;29;20047;-71
2023/07/21 08:55:58;;;;;;;12.00;11.30;;;;;;;49.30;11.71;98193.19;4916879;29;20446;-72
2023/07/21 08:58:24;;;;;;;12.73;11.98;;;;;;;48.94;12.42;98195.09;4914941;29;20445;-72
2023/07/21 09:00:51;;;;;;;13.40;12.48;;;;;;;49.20;11.55;98191.97;4914950;29;20070;-73
2023/07/21 09:03:28;;;;;;;13.77;12.98;;;;;;;49.64;11.48;98191.66;4915017;29;20035;-72
2023/07/21 09:05:56;;;;;;;14.50;13.60;;;;;;;50.04;11.59;98193.25;4899263;29;20055;-73
2023/07/21 09:08:29;;;;;;;18.45;16.92;;;;;;;50.63;11.07;98189.94;4915393;29;20046;-73
2023/07/21 09:10:59;;;;;;;15.77;14.90;;;;;;;50.24;10.76;98201.34;4916937;28;20507;-72
2023/07/21 09:13:26;;;;;;;13.52;12.73;;;;;;;47.48;12.35;98191.22;4956176;28;20065;-73
2023/07/21 09:16:05;;;;;;;12.75;11.77;;;;;;;47.41;12.60;98162.13;4974367;28;20057;-74
2023/07/21 09:18:40;;;;;;;12.35;11.25;;;;;;;47.43;12.24;98166.16;4959246;28;20039;-73
2023/07/21 09:21:06;;;;;;;10.38;9.55;;;;;;;45.42;13.15;98151.66;4959290;28;20385;-74
2023/07/21 09:23:32;;;;;;;8.13;7.63;;;;;;;42.99;14.24;98145.66;4958020;28;20045;-72
2023/07/21 09:25:59;;;;;;;7.25;6.57;;;;;;;42.92;15.13;98157.47;4957578;28;20058;-72
2023/07/21 09:28:44;;;;;;;7.90;7.22;;;;;;;44.14;14.97;98160.25;4959153;28;20045;-73
2023/07/21 09:31:12;;;;;;;9.82;6.00;;;;;;;42.67;14.73;98195.16;4959063;28;20050;-74
2023/07/21 09:33:39;;;;;;;6.75;6.07;;;;;;;43.28;14.68;98152.88;4958978;28;20042;-73
2023/07/21 09:36:05;;;;;;;7.10;6.60;;;;;;;44.30;14.03;98163.03;4952509;28;20422;-74
2023/07/21 09:38:31;;;;;;;8.80;8.30;;;;;;;45.54;13.04;98151.50;4938398;28;20053;-69
2023/07/21 09:41:04;;;;;;;8.85;8.25;;;;;;;46.88;12.41;98156.66;4939571;28;20051;-68
2023/07/21 09:43:30;;;;;;;12.25;11.23;;;;;;;47.76;11.88;98150.31;4940020;28;20039;-69
2023/07/21 09:45:58;;;;;;;11.73;10.85;;;;;;;48.74;11.85;98154.97;4953590;28;20038;-69
2023/07/21 09:48:24;;;;;;;13.55;12.75;;;;;;;49.71;11.84;98156.81;4945048;28;20057;-68
2023/07/21 09:50:50;;;;;;;16.63;15.52;;;;;;;50.41;11.10;98161.59;4960209;28;20054;-68
2023/07/21 09:53:20;;;;;;;18.60;17.20;;;;;;;50.92;10.83;98185.75;4958013;28;20062;-68
2023/07/21 09:55:48;;;;;;;22.33;20.63;;;;;;;51.37;10.56;98177.41;4941560;28;20050;-68
2023/07/21 09:58:16;;;;;;;23.13;21.95;;;;;;;51.65;10.25;98188.59;4942640;28;20430;-68
2023/07/21 10:00:44;;;;;;;24.83;23.58;;;;;;;51.30;10.53;98178.25;4942123;28;20047;-69
2023/07/21 10:03:12;;;;;;;28.00;26.60;;;;;;;51.41;10.36;98181.84;4950802;28;20042;-69
2023/07/21 10:05:38;;;;;;;29.10;27.50;;;;;;;50.91;10.65;98172.78;4956251;28;20417;-74
2023/07/21 10:08:06;;;;;;;23.02;21.88;;;;;;;49.19;10.96;98164.88;4958268;28;20038;-76
2023/07/21 10:11:15;;;;;;;18.90;17.90;;;;;;;50.22;10.95;98153.56;4945724;28;20153;-73
2023/07/21 10:13:46;;;;;;;19.75;18.65;;;;;;;50.28;11.24;98168.94;4938778;28;20410;-67
2023/07/21 10:16:38;;;;;;;22.58;21.48;;;;;;;51.44;10.71;98168.84;4941454;28;20053;-68
2023/07/21 10:19:10;;;;;;;20.77;19.52;;;;;;;48.55;11.75;98172.25;4957054;28;20046;-68
2023/07/21 10:21:53;;;;;;;18.33;16.98;;;;;;;47.94;12.64;98146.44;4940721;28;20413;-67
2023/07/21 10:24:32;;;;;;;12.70;11.80;;;;;;;46.04;13.18;98140.22;4955264;28;20046;-69
2023/07/21 10:27:02;;;;;;;12.98;12.10;;;;;;;45.87;13.84;98138.72;4939274;28;20054;-70
2023/07/21 10:29:28;;;;;;;10.82;10.13;;;;;;;46.76;13.09;98131.53;4938298;28;20043;-69
2023/07/21 10:31:55;;;;;;;13.10;12.35;;;;;;;47.82;12.21;98137.47;4938282;28;20050;-68
2023/07/21 10:34:43;;;;;;;14.60;13.70;;;;;;;49.14;12.15;98162.38;4938127;28;20050;-68
2023/07/21 10:37:08;;;;;;;11.90;11.20;;;;;;;46.04;12.90;98154.31;4952406;28;20490;-69
2023/07/21 10:39:43;;;;;;;8.98;8.27;;;;;;;43.54;14.28;98138.28;4941080;28;20042;-68
2023/07/21 10:42:10;;;;;;;6.75;6.35;;;;;;;40.23;16.14;98154.72;4942072;28;20893;-69
2023/07/21 10:44:37;;;;;;;5.93;4.80;;;;;;;37.90;17.63;98151.59;4957533;28;20042;-68
2023/07/21 10:47:05;;;;;;;5.30;4.80;;;;;;;36.03;19.27;98120.00;4942022;28;20042;-68
2023/07/21 10:49:30;;;;;;;3.90;3.63;;;;;;;34.55;20.06;98143.31;4942307;28;20891;-67
2023/07/21 10:51:55;;;;;;;4.20;3.70;;;;;;;33.28;21.65;98158.00;4940092;28;20062;-67
2023/07/21 10:54:21;;;;;;;3.88;3.53;;;;;;;32.19;22.89;98156.66;4941454;28;20050;-67
2023/07/21 10:56:49;;;;;;;3.63;3.13;;;;;;;31.35;24.07;98159.22;4940143;28;20053;-67
2023/07/21 10:59:17;;;;;;;3.17;2.90;;;;;;;30.85;25.16;98148.28;4939922;28;20426;-69
2023/07/21 11:01:50;;;;;;;4.13;2.95;;;;;;;30.51;26.30;98170.81;4957260;28;20061;-68
2023/07/21 11:04:21;;;;;;;4.80;2.78;;;;;;;29.94;26.24;98165.44;4972258;28;20051;-68
2023/07/21 11:06:49;;;;;;;2.63;2.38;;;;;;;29.20;26.88;98163.72;4957084;28;20046;-67
2023/07/21 11:09:17;;;;;;;3.78;2.70;;;;;;;28.74;27.88;98173.53;4956861;28;20057;-66
2023/07/21 11:11:45;;;;;;;4.60;2.60;;;;;;;28.47;28.03;98162.59;4955895;28;20042;-66
2023/07/21 11:14:12;;;;;;;4.53;2.58;;;;;;;28.16;28.26;98177.06;4939017;28;20054;-66
2023/07/21 11:16:48;;;;;;;5.50;2.60;;;;;;;27.95;29.02;98170.56;4956629;28;20046;-69
2023/07/21 11:19:15;;;;;;;4.60;3.03;;;;;;;27.37;29.40;98182.97;4957480;28;20049;-67
2023/07/21 11:21:41;;;;;;;5.32;2.30;;;;;;;27.05;30.23;98181.94;4948536;28;20063;-64
2023/07/21 11:24:08;;;;;;;3.28;2.70;;;;;;;26.78;30.28;98184.50;4940250;28;20042;-67
2023/07/21 11:26:34;;;;;;;3.15;2.30;;;;;;;26.57;30.38;98196.19;4955843;28;20051;-67
2023/07/21 11:28:59;;;;;;;3.78;2.70;;;;;;;26.32;31.67;98199.28;4939997;28;20039;-67
2023/07/21 11:31:25;;;;;;;3.75;2.65;;;;;;;26.06;32.33;98199.88;4958027;28;20057;-66
2023/07/21 11:33:50;;;;;;;5.95;3.10;;;;;;;25.89;32.71;98203.38;4943033;28;20042;-68
2023/07/21 11:36:23;;;;;;;8.60;3.00;;;;;;;25.80;34.60;98217.66;4966355;28;20417;-66
2023/07/21 11:39:07;;;;;;;4.28;2.78;;;;;;;25.68;34.52;98220.41;4939214;28;20039;-72